WEATHER DATA

YESTERDAY
Time Temp. Dewp. Hum. Wind dir Wind speed Wind gust Bar. 1h Prec. 24h Prec.
00:06 4.3 3.1 92 0 0 1016 0.0000 0.0000
00:17 4.2 3 92 0 0 1016.2 0.0000 0.0000
00:27 4.2 3 92 0 0 1016.2 0.0000 0.0000
00:37 4.2 3 92 0 0 1016.4 0.0000 0.0000
00:46 4.2 3 92 0 0 1016.4 0.0000 0.0000
00:57 4.1 2.8 91 0 0 1016.5 0.0000 0.0000
01:07 4.1 2.8 91 0 0 1016.6 0.0000 0.0000
01:17 3.9 2.6 91 0 0 1016.9 0.0000 0.0000
01:27 3.8 2.5 91 0 0 1016.9 0.0000 0.0000
01:37 3.8 2.6 92 0 0 1017 0.0000 0.0000
01:47 3.8 2.6 92 0 0 1017.3 0.0000 0.0000
01:53 3.8 2.8 93 0 0 1017.5 0.3030 0.3000
02:03 3.9 2.9 93 0 0 1017.6 0.6060 0.6000
02:13 3.8 2.8 93 0 0 1017.4 0.6060 0.6000
02:23 3.8 2.8 93 0 0 1017.6 0.6060 0.6000
02:33 3.7 2.8 94 0 0 1017.8 0.6060 0.6000
02:43 3.8 3.1 95 0 0 1017.8 0.4040 0.6000
02:53 3.9 3.2 95 0 0 1017.8 0.0000 0.6000
03:07 4 3.3 95 0 0 1018.6 1.0100 1.6000
03:18 3.9 3 94 0 0 1018.3 1.3130 1.9000
03:28 3.7 2.5 92 0 0 1018.5 1.3130 1.9000
03:37 3.6 2.4 92 0 0 1018.6 1.3130 1.9000
03:48 3.5 2.5 93 0 0 1018.8 1.3130 1.9000
03:58 3.4 2.5 94 0 0 1018.9 1.3130 1.9000
04:08 3.3 2.4 94 0 0 1018.9 0.1010 1.9000
04:17 3.3 2.4 94 0 0 1019 0.0000 1.9000
04:28 3.2 2.3 94 0 0 1019.1 0.0000 1.9000
04:38 3.2 2.3 94 0 0 1019.2 0.0000 1.9000
04:53 3.2 2.3 94 0 0 1019.4 0.0000 1.9000
05:03 3.2 2.3 94 0 0 1019.4 0.0000 1.9000
05:13 3.1 2.2 94 0 0 1019.6 0.0000 1.9000
05:23 3.1 2.2 94 0 0 1019.7 0.0000 1.9000
05:34 3.1 2.1 93 0 0 1019.7 0.0000 1.9000
05:49 3.1 2.2 94 0 0 1019.8 0.0000 1.9000
06:09 3.1 2.2 94 0 0 1019.9 0.0000 1.9000
06:19 3.2 2.3 94 0 0 1020.1 0.0000 1.9000
06:29 3.1 2.2 94 0 0 1020.2 0.0000 1.9000
06:38 3.1 2.2 94 0 0 1020.3 0.0000 1.9000
06:49 3 2 93 0 0 1020.4 0.0000 1.9000
06:57 2.9 1.9 93 0 0 1020.5 0.0000 1.9000
07:08 2.8 1.8 93 0 0 1020.6 0.0000 1.9000
07:18 2.7 1.7 93 0 0 1020.7 0.0000 1.9000
07:28 2.5 1.5 93 0 0 1020.8 0.0000 1.9000
07:38 2.3 1.3 93 0 0 1021 0.0000 1.9000
07:48 2.2 1.3 94 0 0 1021.1 0.0000 1.9000
07:58 2.3 1.6 95 0 0 1021.2 0.0000 1.9000
08:08 2.3 1.6 95 0 0 1021.2 0.0000 1.9000
08:18 2.4 1.7 95 0 0 1021.4 0.0000 1.9000
08:33 2.5 1.8 95 0 0 1021.7 0.0000 1.9000
08:48 2.7 2 95 0 0 1021.8 0.1010 2.0000
08:59 2.8 2.1 95 0 0 1021.9 0.2020 2.1000
09:08 2.9 2.2 95 0 0 1022.1 0.2020 2.1000
09:30 3.1 2.4 95 0 0 1022.2 0.4040 2.3000
09:40 3.2 2.5 95 0 0 1022.4 0.3030 2.3000
09:56 3.4 2.7 95 0 0 1022.7 0.0000 2.3000
10:41 4.1 2.9 92 0 0 1022.9 0.1010 2.4000
10:56 4.2 2.9 91 0 0 1023 0.1010 2.4000
11:06 4.3 3 91 0 0 1023.2 0.1010 2.4000
11:16 4.3 3 91 0 0 1023 0.1010 2.4000
11:26 4.3 3 91 0 0 1023.2 0.1010 2.4000
11:36 4.3 2.8 90 0 0 1023.1 0.0000 2.4000
11:46 4.2 2.7 90 0 0 1023.1 0.0000 2.4000
11:56 4.2 2.6 89 0 0 1023.1 0.0000 2.4000
12:07 4.3 2.7 89 0 0 1022.9 0.0000 2.4000
12:17 4.5 2.7 88 0 0 1022.9 0.0000 2.4000
12:31 4.6 2.8 88 0 0 1022.8 0.0000 2.4000
12:42 4.7 2.7 87 0 0 1022.7 0.0000 2.4000
12:52 4.7 2.9 88 0 0 1022.6 0.0000 2.4000
13:01 4.7 2.7 87 0 0 1022.6 0.0000 2.4000
13:17 4.7 2.7 87 0 0 1022.6 0.0000 2.4000
13:27 4.7 2.7 87 0 0 1022.5 0.0000 2.4000
13:42 4.7 2.7 87 0 0 1022.2 0.1010 2.5000
13:52 4.7 2.9 88 0 0 1022.1 0.1010 2.5000
14:02 4.7 2.9 88 0 0 1022.1 0.1010 2.5000
14:12 4.7 3 89 0 0 1022.2 0.2020 2.6000
14:27 4.7 2.9 88 0 0 1022 0.2020 2.6000
14:47 4.6 2.6 87 0 0 1022 0.2020 2.7000
14:54 4.5 2.7 88 0 0 1021.8 0.3030 2.8000
15:03 4.5 2.7 88 0 0 1021.9 0.2020 2.8000
15:14 4.4 2.7 89 0 0 1022 0.2020 2.8000
15:39 4.2 2.6 89 0 0 1021.8 0.2020 2.9000
15:54 4.1 2.6 90 0 0 1022.1 0.2020 3.0000
16:04 4 2.5 90 0 0 1022 0.2020 3.0000
16:20 3.9 2.6 91 0 0 1022 0.3030 3.1000
16:29 3.8 2.5 91 0 0 1022.3 0.5050 3.4000
16:44 3.7 2.4 91 0 0 1022.3 0.5050 3.5000
16:55 3.6 2.4 92 0 0 1022.4 0.5050 3.5000
17:05 3.6 2.4 92 0 0 1022.4 0.6060 3.6000
17:14 3.5 2.5 93 0 0 1022.6 0.4040 3.9000
17:45 3.4 2.4 93 0 0 1022.6 0.6060 4.1000
17:54 3.3 2.3 93 0 0 1022.7 0.6060 4.1000
18:05 3.3 2.3 93 0 0 1022.8 0.4040 4.1000
18:15 3.3 2.1 92 0 0 1022.8 0.3030 4.2000
18:25 3.3 2.1 92 0 0 1022.7 0.1010 4.2000
18:35 3.2 1.9 91 0 0 1022.7 0.1010 4.2000
18:45 3.1 1.8 91 0 0 1022.7 0.1010 4.2000
18:55 3.1 1.8 91 0 0 1022.7 0.1010 4.2000
19:05 3.1 1.8 91 0 0 1022.8 0.1010 4.2000
19:16 3.1 1.8 91 0 0 1022.9 0.0000 4.2000
19:25 3.1 1.8 91 0 0 1023.1 0.0000 4.2000
19:35 3 1.7 91 0 0 1023.1 0.0000 4.2000
19:45 2.9 1.6 91 0 0 1023.2 0.0000 4.2000
19:55 2.8 1.3 90 0 0 1023.2 0.0000 4.2000
20:05 2.7 1.2 90 0 0 1023.1 0.0000 4.2000
20:15 2.6 1.1 90 0 0 1023.2 0.0000 4.2000
20:26 2.5 1 90 0 0 1023.4 0.0000 4.2000
20:36 2.5 1 90 0 0 1023.5 0.0000 4.2000
20:45 2.4 0.9 90 0 0 1023.5 0.0000 4.2000
20:56 2.3 0.8 90 0 0 1023.5 0.0000 4.2000
21:06 2.2 0.7 90 0 0 1023.5 0.0000 4.2000
21:16 2.2 0.9 91 0 0 1023.6 0.0000 4.2000
21:25 2.3 1.1 92 0 0 1023.6 0.0000 4.2000
21:46 2.3 1.1 92 0 0 1023.6 0.0000 4.2000
21:56 2.3 1.1 92 0 0 1023.7 0.0000 4.2000
22:06 2.3 1.1 92 0 0 1023.6 0.0000 4.2000
22:16 2.4 1.2 92 0 0 1023.6 0.0000 4.2000
22:26 2.3 1 91 0 0 1023.5 0.0000 4.2000
22:36 2.3 1 91 0 0 1023.6 0.0000 4.2000
22:46 2.4 1.1 91 0 0 1023.5 0.0000 4.2000
22:56 2.4 1.1 91 0 0 1023.5 0.0000 4.2000
23:16 2.4 1.1 91 0 0 1023.6 0.0000 4.2000
23:27 2.4 1.1 91 0 0 1023.5 0.0000 4.2000
23:36 2.4 1.1 91 0 0 1023.5 0.0000 4.2000
23:46 2.4 1.1 91 0 0 1023.4 0.0000 4.2000
23:56 2.3 1 91 0 0 1023.4 0.0000 4.2000

DAY STATISTIC

2018-12-10
TEMPERATURE
AVERAGE
3.4
HIGH
4.7
12:42
LOW
2.2
07:48
PRESSURE
AVERAGE
1021.3
HIGH
1023.7
21:56
LOW
1016.0
00:06
DEWPOINT
AVERAGE
2.2
HIGH
3.3
03:07
LOW
0.7
21:06
HUMIDITY
AVERAGE
92
HIGH
95
02:43
LOW
87
12:42
WIND SPEED
AVERAGE
0.0
HIGH
0.0
23:56
WIND GUST
AVERAGE
0.0
HIGH
0.0
23:56
WIND DIRECTION
PREVAILING
%
PRECIPITATION
RAIN HOUR
1.3
RAIN DAY
4.2
TEMPERATURE (°C)
LOW
2.2
HIGH
4.7
AVERAGE
3.4
PRESSURE (hpa)
LOW
1016.0
HIGH
1023.7
AVERAGE
1021.3
DEVICE